sensor_id;sensor_type;location;lat;lon;timestamp;P1;durP1;ratioP1;P2;durP2;ratioP2
60354;SDS011;46198;51.464;-0.066;2022-11-20T00:01:39;26.13;;;12.37;;
60354;SDS011;46198;51.464;-0.066;2022-11-20T00:04:08;21.07;;;11.67;;
60354;SDS011;46198;51.464;-0.066;2022-11-20T00:06:38;22.47;;;11.33;;
60354;SDS011;46198;51.464;-0.066;2022-11-20T00:09:09;18.23;;;9.93;;
60354;SDS011;46198;51.464;-0.066;2022-11-20T00:11:37;23.83;;;9.83;;
60354;SDS011;46198;51.464;-0.066;2022-11-20T00:14:06;18.07;;;9.70;;
60354;SDS011;46198;51.464;-0.066;2022-11-20T00:16:37;19.07;;;10.23;;
60354;SDS011;46198;51.464;-0.066;2022-11-20T00:19:07;19.63;;;10.20;;
60354;SDS011;46198;51.464;-0.066;2022-11-20T00:21:35;20.53;;;10.37;;
60354;SDS011;46198;51.464;-0.066;2022-11-20T00:24:03;18.73;;;9.80;;
60354;SDS011;46198;51.464;-0.066;2022-11-20T00:26:37;21.03;;;10.03;;
60354;SDS011;46198;51.464;-0.066;2022-11-20T00:29:10;19.57;;;9.53;;
60354;SDS011;46198;51.464;-0.066;2022-11-20T00:31:43;20.03;;;10.17;;
60354;SDS011;46198;51.464;-0.066;2022-11-20T00:34:12;18.47;;;10.03;;
60354;SDS011;46198;51.464;-0.066;2022-11-20T00:36:40;17.27;;;10.13;;
60354;SDS011;46198;51.464;-0.066;2022-11-20T00:39:09;25.73;;;10.40;;
60354;SDS011;46198;51.464;-0.066;2022-11-20T00:41:39;19.57;;;9.93;;
60354;SDS011;46198;51.464;-0.066;2022-11-20T00:44:07;20.93;;;9.17;;
60354;SDS011;46198;51.464;-0.066;2022-11-20T00:46:35;22.70;;;9.57;;
60354;SDS011;46198;51.464;-0.066;2022-11-20T00:49:04;22.70;;;10.53;;
60354;SDS011;46198;51.464;-0.066;2022-11-20T00:51:32;25.67;;;11.63;;
60354;SDS011;46198;51.464;-0.066;2022-11-20T00:54:00;23.70;;;10.50;;
60354;SDS011;46198;51.464;-0.066;2022-11-20T00:56:28;18.60;;;10.07;;
60354;SDS011;46198;51.464;-0.066;2022-11-20T00:58:59;19.90;;;10.07;;
60354;SDS011;46198;51.464;-0.066;2022-11-20T01:01:28;21.77;;;11.47;;
60354;SDS011;46198;51.464;-0.066;2022-11-20T01:03:57;25.63;;;11.30;;
60354;SDS011;46198;51.464;-0.066;2022-11-20T01:06:27;21.20;;;10.23;;
60354;SDS011;46198;51.464;-0.066;2022-11-20T01:08:57;18.33;;;10.73;;
60354;SDS011;46198;51.464;-0.066;2022-11-20T01:11:28;22.17;;;10.85;;
60354;SDS011;46198;51.464;-0.066;2022-11-20T01:14:00;17.00;;;10.35;;
60354;SDS011;46198;51.464;-0.066;2022-11-20T01:16:31;27.60;;;11.30;;
60354;SDS011;46198;51.464;-0.066;2022-11-20T01:19:02;25.48;;;11.27;;
60354;SDS011;46198;51.464;-0.066;2022-11-20T01:21:33;20.37;;;11.13;;
60354;SDS011;46198;51.464;-0.066;2022-11-20T01:24:03;20.07;;;10.33;;
60354;SDS011;46198;51.464;-0.066;2022-11-20T01:26:35;20.83;;;9.77;;
60354;SDS011;46198;51.464;-0.066;2022-11-20T01:29:06;21.80;;;10.32;;
60354;SDS011;46198;51.464;-0.066;2022-11-20T01:31:40;22.27;;;10.00;;
60354;SDS011;46198;51.464;-0.066;2022-11-20T01:34:09;19.53;;;8.63;;
60354;SDS011;46198;51.464;-0.066;2022-11-20T01:36:39;19.13;;;8.80;;
60354;SDS011;46198;51.464;-0.066;2022-11-20T01:39:10;18.70;;;9.13;;
60354;SDS011;46198;51.464;-0.066;2022-11-20T01:41:39;17.20;;;7.87;;
60354;SDS011;46198;51.464;-0.066;2022-11-20T01:47:23;11.40;;;7.33;;
60354;SDS011;46198;51.464;-0.066;2022-11-20T01:50:00;14.05;;;6.60;;
60354;SDS011;46198;51.464;-0.066;2022-11-20T01:52:33;16.00;;;6.77;;
60354;SDS011;46198;51.464;-0.066;2022-11-20T01:55:04;9.53;;;5.17;;
60354;SDS011;46198;51.464;-0.066;2022-11-20T01:57:35;11.23;;;4.73;;
60354;SDS011;46198;51.464;-0.066;2022-11-20T02:00:09;11.07;;;5.15;;
60354;SDS011;46198;51.464;-0.066;2022-11-20T02:02:41;12.67;;;5.33;;
60354;SDS011;46198;51.464;-0.066;2022-11-20T02:05:14;11.63;;;5.20;;
60354;SDS011;46198;51.464;-0.066;2022-11-20T02:07:45;10.23;;;4.90;;
60354;SDS011;46198;51.464;-0.066;2022-11-20T02:10:14;11.67;;;4.60;;
60354;SDS011;46198;51.464;-0.066;2022-11-20T02:12:43;10.73;;;4.33;;
60354;SDS011;46198;51.464;-0.066;2022-11-20T02:15:31;10.70;;;4.40;;
60354;SDS011;46198;51.464;-0.066;2022-11-20T02:18:00;8.40;;;3.83;;
60354;SDS011;46198;51.464;-0.066;2022-11-20T02:20:29;9.87;;;4.10;;
60354;SDS011;46198;51.464;-0.066;2022-11-20T02:22:57;10.30;;;4.33;;
60354;SDS011;46198;51.464;-0.066;2022-11-20T02:25:32;8.50;;;3.30;;
60354;SDS011;46198;51.464;-0.066;2022-11-20T02:28:03;6.53;;;3.20;;
60354;SDS011;46198;51.464;-0.066;2022-11-20T02:30:32;9.70;;;3.93;;
60354;SDS011;46198;51.464;-0.066;2022-11-20T02:33:00;5.47;;;2.80;;
60354;SDS011;46198;51.464;-0.066;2022-11-20T02:35:42;5.53;;;2.67;;
60354;SDS011;46198;51.464;-0.066;2022-11-20T02:38:11;4.90;;;2.23;;
60354;SDS011;46198;51.464;-0.066;2022-11-20T02:40:41;4.07;;;2.97;;
60354;SDS011;46198;51.464;-0.066;2022-11-20T02:43:10;7.13;;;2.50;;
60354;SDS011;46198;51.464;-0.066;2022-11-20T02:45:43;4.07;;;2.63;;
60354;SDS011;46198;51.464;-0.066;2022-11-20T02:48:11;6.47;;;2.90;;
60354;SDS011;46198;51.464;-0.066;2022-11-20T02:50:39;3.07;;;2.10;;
60354;SDS011;46198;51.464;-0.066;2022-11-20T02:53:07;5.23;;;2.50;;
60354;SDS011;46198;51.464;-0.066;2022-11-20T02:55:35;7.37;;;2.87;;
60354;SDS011;46198;51.464;-0.066;2022-11-20T02:58:05;7.87;;;2.60;;
60354;SDS011;46198;51.464;-0.066;2022-11-20T03:00:33;6.87;;;2.30;;
60354;SDS011;46198;51.464;-0.066;2022-11-20T03:03:02;6.73;;;2.50;;
60354;SDS011;46198;51.464;-0.066;2022-11-20T03:05:30;5.20;;;2.03;;
60354;SDS011;46198;51.464;-0.066;2022-11-20T03:07:58;6.77;;;1.77;;
60354;SDS011;46198;51.464;-0.066;2022-11-20T03:10:27;5.40;;;2.10;;
60354;SDS011;46198;51.464;-0.066;2022-11-20T03:12:55;9.30;;;2.10;;
60354;SDS011;46198;51.464;-0.066;2022-11-20T03:15:24;7.77;;;2.03;;
60354;SDS011;46198;51.464;-0.066;2022-11-20T03:17:53;4.80;;;2.13;;
60354;SDS011;46198;51.464;-0.066;2022-11-20T03:20:22;3.57;;;1.60;;
60354;SDS011;46198;51.464;-0.066;2022-11-20T03:22:50;6.93;;;1.80;;
60354;SDS011;46198;51.464;-0.066;2022-11-20T03:25:21;3.28;;;1.45;;
60354;SDS011;46198;51.464;-0.066;2022-11-20T03:27:49;6.77;;;2.03;;
60354;SDS011;46198;51.464;-0.066;2022-11-20T03:30:18;4.70;;;1.60;;
60354;SDS011;46198;51.464;-0.066;2022-11-20T03:32:47;5.80;;;1.60;;
60354;SDS011;46198;51.464;-0.066;2022-11-20T03:35:16;6.43;;;1.50;;
60354;SDS011;46198;51.464;-0.066;2022-11-20T03:37:44;5.73;;;1.87;;
60354;SDS011;46198;51.464;-0.066;2022-11-20T03:40:12;7.47;;;1.77;;
60354;SDS011;46198;51.464;-0.066;2022-11-20T03:42:40;4.63;;;1.60;;
60354;SDS011;46198;51.464;-0.066;2022-11-20T03:45:15;4.73;;;2.00;;
60354;SDS011;46198;51.464;-0.066;2022-11-20T03:47:44;3.17;;;1.37;;
60354;SDS011;46198;51.464;-0.066;2022-11-20T03:50:14;6.13;;;2.20;;
60354;SDS011;46198;51.464;-0.066;2022-11-20T03:52:42;9.10;;;1.93;;
60354;SDS011;46198;51.464;-0.066;2022-11-20T03:55:10;3.20;;;1.50;;
60354;SDS011;46198;51.464;-0.066;2022-11-20T03:57:39;5.20;;;1.60;;
60354;SDS011;46198;51.464;-0.066;2022-11-20T04:00:07;4.00;;;1.57;;
60354;SDS011;46198;51.464;-0.066;2022-11-20T04:02:36;5.97;;;1.70;;
60354;SDS011;46198;51.464;-0.066;2022-11-20T04:05:05;3.97;;;1.57;;
60354;SDS011;46198;51.464;-0.066;2022-11-20T04:07:35;4.20;;;1.67;;
60354;SDS011;46198;51.464;-0.066;2022-11-20T04:10:03;8.30;;;1.73;;
60354;SDS011;46198;51.464;-0.066;2022-11-20T04:12:32;9.60;;;2.03;;
60354;SDS011;46198;51.464;-0.066;2022-11-20T04:15:03;4.93;;;2.00;;
60354;SDS011;46198;51.464;-0.066;2022-11-20T04:17:32;3.30;;;1.63;;
60354;SDS011;46198;51.464;-0.066;2022-11-20T04:20:00;4.13;;;1.70;;
60354;SDS011;46198;51.464;-0.066;2022-11-20T04:22:29;3.37;;;1.70;;
60354;SDS011;46198;51.464;-0.066;2022-11-20T04:25:00;7.17;;;2.07;;
60354;SDS011;46198;51.464;-0.066;2022-11-20T04:27:30;4.73;;;2.00;;
60354;SDS011;46198;51.464;-0.066;2022-11-20T04:29:59;4.60;;;2.33;;
60354;SDS011;46198;51.464;-0.066;2022-11-20T04:32:27;5.87;;;2.33;;
60354;SDS011;46198;51.464;-0.066;2022-11-20T04:34:55;10.03;;;3.23;;
60354;SDS011;46198;51.464;-0.066;2022-11-20T04:37:24;5.57;;;2.07;;
60354;SDS011;46198;51.464;-0.066;2022-11-20T04:39:52;3.37;;;1.90;;
60354;SDS011;46198;51.464;-0.066;2022-11-20T04:42:21;8.40;;;2.30;;
60354;SDS011;46198;51.464;-0.066;2022-11-20T04:44:58;8.50;;;2.10;;
60354;SDS011;46198;51.464;-0.066;2022-11-20T04:47:26;6.50;;;1.77;;
60354;SDS011;46198;51.464;-0.066;2022-11-20T04:49:54;2.70;;;1.73;;
60354;SDS011;46198;51.464;-0.066;2022-11-20T04:52:23;5.47;;;2.53;;
60354;SDS011;46198;51.464;-0.066;2022-11-20T04:54:52;6.70;;;2.20;;
60354;SDS011;46198;51.464;-0.066;2022-11-20T04:57:21;2.70;;;1.80;;
60354;SDS011;46198;51.464;-0.066;2022-11-20T04:59:50;3.33;;;2.17;;
60354;SDS011;46198;51.464;-0.066;2022-11-20T05:02:18;6.43;;;2.40;;
60354;SDS011;46198;51.464;-0.066;2022-11-20T05:04:46;7.40;;;2.67;;
60354;SDS011;46198;51.464;-0.066;2022-11-20T05:07:15;7.63;;;2.47;;
60354;SDS011;46198;51.464;-0.066;2022-11-20T05:09:44;6.00;;;2.47;;
60354;SDS011;46198;51.464;-0.066;2022-11-20T05:12:12;8.20;;;2.87;;
60354;SDS011;46198;51.464;-0.066;2022-11-20T05:14:41;6.07;;;2.20;;
60354;SDS011;46198;51.464;-0.066;2022-11-20T05:17:10;6.53;;;2.60;;
60354;SDS011;46198;51.464;-0.066;2022-11-20T05:19:38;4.07;;;2.20;;
60354;SDS011;46198;51.464;-0.066;2022-11-20T05:22:07;5.33;;;2.57;;
60354;SDS011;46198;51.464;-0.066;2022-11-20T05:24:35;9.57;;;3.50;;
60354;SDS011;46198;51.464;-0.066;2022-11-20T05:27:03;7.67;;;2.13;;
60354;SDS011;46198;51.464;-0.066;2022-11-20T05:29:31;4.70;;;2.50;;
60354;SDS011;46198;51.464;-0.066;2022-11-20T05:32:00;8.70;;;2.80;;
60354;SDS011;46198;51.464;-0.066;2022-11-20T05:34:28;6.53;;;2.03;;
60354;SDS011;46198;51.464;-0.066;2022-11-20T05:36:57;5.93;;;2.27;;
60354;SDS011;46198;51.464;-0.066;2022-11-20T05:39:25;4.43;;;2.50;;
60354;SDS011;46198;51.464;-0.066;2022-11-20T05:41:53;6.07;;;2.27;;
60354;SDS011;46198;51.464;-0.066;2022-11-20T05:44:35;5.07;;;2.57;;
60354;SDS011;46198;51.464;-0.066;2022-11-20T05:47:05;6.00;;;2.63;;
60354;SDS011;46198;51.464;-0.066;2022-11-20T05:49:33;5.77;;;2.20;;
60354;SDS011;46198;51.464;-0.066;2022-11-20T05:52:01;5.50;;;2.53;;
60354;SDS011;46198;51.464;-0.066;2022-11-20T05:54:29;4.33;;;2.00;;
60354;SDS011;46198;51.464;-0.066;2022-11-20T05:56:57;4.50;;;2.03;;
60354;SDS011;46198;51.464;-0.066;2022-11-20T05:59:26;6.17;;;2.87;;
60354;SDS011;46198;51.464;-0.066;2022-11-20T06:01:54;5.57;;;2.60;;
60354;SDS011;46198;51.464;-0.066;2022-11-20T06:04:23;3.80;;;1.93;;
60354;SDS011;46198;51.464;-0.066;2022-11-20T06:06:52;6.43;;;2.50;;
60354;SDS011;46198;51.464;-0.066;2022-11-20T06:09:20;5.67;;;2.53;;
60354;SDS011;46198;51.464;-0.066;2022-11-20T06:11:48;5.53;;;2.20;;
60354;SDS011;46198;51.464;-0.066;2022-11-20T06:14:16;4.93;;;3.07;;
60354;SDS011;46198;51.464;-0.066;2022-11-20T06:16:44;5.17;;;2.47;;
60354;SDS011;46198;51.464;-0.066;2022-11-20T06:19:12;5.87;;;2.30;;
60354;SDS011;46198;51.464;-0.066;2022-11-20T06:21:42;4.03;;;2.13;;
60354;SDS011;46198;51.464;-0.066;2022-11-20T06:24:11;4.73;;;2.33;;
60354;SDS011;46198;51.464;-0.066;2022-11-20T06:26:39;5.63;;;2.10;;
60354;SDS011;46198;51.464;-0.066;2022-11-20T06:29:07;8.83;;;2.47;;
60354;SDS011;46198;51.464;-0.066;2022-11-20T06:31:35;5.67;;;2.17;;
60354;SDS011;46198;51.464;-0.066;2022-11-20T06:34:04;4.60;;;2.50;;
60354;SDS011;46198;51.464;-0.066;2022-11-20T06:36:33;5.33;;;2.60;;
60354;SDS011;46198;51.464;-0.066;2022-11-20T06:39:03;5.03;;;2.03;;
60354;SDS011;46198;51.464;-0.066;2022-11-20T06:41:32;7.47;;;2.53;;
60354;SDS011;46198;51.464;-0.066;2022-11-20T06:44:05;6.30;;;2.67;;
60354;SDS011;46198;51.464;-0.066;2022-11-20T06:46:33;6.17;;;3.17;;
60354;SDS011;46198;51.464;-0.066;2022-11-20T06:49:01;6.43;;;2.73;;
60354;SDS011;46198;51.464;-0.066;2022-11-20T06:51:29;5.17;;;2.50;;
60354;SDS011;46198;51.464;-0.066;2022-11-20T06:53:57;4.10;;;2.50;;
60354;SDS011;46198;51.464;-0.066;2022-11-20T06:56:28;5.23;;;2.90;;
60354;SDS011;46198;51.464;-0.066;2022-11-20T06:58:56;5.17;;;2.50;;
60354;SDS011;46198;51.464;-0.066;2022-11-20T07:01:24;3.30;;;2.50;;
60354;SDS011;46198;51.464;-0.066;2022-11-20T07:03:53;4.83;;;2.13;;
60354;SDS011;46198;51.464;-0.066;2022-11-20T07:06:21;5.33;;;2.73;;
60354;SDS011;46198;51.464;-0.066;2022-11-20T07:08:50;3.93;;;2.37;;
60354;SDS011;46198;51.464;-0.066;2022-11-20T07:11:18;11.23;;;3.17;;
60354;SDS011;46198;51.464;-0.066;2022-11-20T07:13:49;6.10;;;2.63;;
60354;SDS011;46198;51.464;-0.066;2022-11-20T07:16:17;5.88;;;2.80;;
60354;SDS011;46198;51.464;-0.066;2022-11-20T07:18:45;10.37;;;4.07;;
60354;SDS011;46198;51.464;-0.066;2022-11-20T07:21:16;10.73;;;3.22;;
60354;SDS011;46198;51.464;-0.066;2022-11-20T07:23:45;8.10;;;3.17;;
60354;SDS011;46198;51.464;-0.066;2022-11-20T07:26:13;6.27;;;3.40;;
60354;SDS011;46198;51.464;-0.066;2022-11-20T07:28:43;11.33;;;3.77;;
60354;SDS011;46198;51.464;-0.066;2022-11-20T07:31:13;6.80;;;3.53;;
60354;SDS011;46198;51.464;-0.066;2022-11-20T07:33:45;9.13;;;3.20;;
60354;SDS011;46198;51.464;-0.066;2022-11-20T07:36:13;6.10;;;3.10;;
60354;SDS011;46198;51.464;-0.066;2022-11-20T07:38:41;5.37;;;3.17;;
60354;SDS011;46198;51.464;-0.066;2022-11-20T07:41:09;6.53;;;2.30;;
60354;SDS011;46198;51.464;-0.066;2022-11-20T07:43:37;3.60;;;2.10;;
60354;SDS011;46198;51.464;-0.066;2022-11-20T07:46:07;6.17;;;2.40;;
60354;SDS011;46198;51.464;-0.066;2022-11-20T07:48:36;6.67;;;2.63;;
60354;SDS011;46198;51.464;-0.066;2022-11-20T07:51:05;4.10;;;2.10;;
60354;SDS011;46198;51.464;-0.066;2022-11-20T07:53:33;7.00;;;2.77;;
60354;SDS011;46198;51.464;-0.066;2022-11-20T07:56:01;3.30;;;2.30;;
60354;SDS011;46198;51.464;-0.066;2022-11-20T07:58:30;6.17;;;2.30;;
60354;SDS011;46198;51.464;-0.066;2022-11-20T08:01:03;5.55;;;2.90;;
60354;SDS011;46198;51.464;-0.066;2022-11-20T08:03:32;4.33;;;2.73;;
60354;SDS011;46198;51.464;-0.066;2022-11-20T08:06:02;7.77;;;3.00;;
60354;SDS011;46198;51.464;-0.066;2022-11-20T08:08:30;2.80;;;2.47;;
60354;SDS011;46198;51.464;-0.066;2022-11-20T08:11:00;4.90;;;2.40;;
60354;SDS011;46198;51.464;-0.066;2022-11-20T08:13:42;4.17;;;2.30;;
60354;SDS011;46198;51.464;-0.066;2022-11-20T08:16:28;5.40;;;2.87;;
60354;SDS011;46198;51.464;-0.066;2022-11-20T08:18:56;6.53;;;2.37;;
60354;SDS011;46198;51.464;-0.066;2022-11-20T08:21:25;5.33;;;2.27;;
60354;SDS011;46198;51.464;-0.066;2022-11-20T08:23:53;6.97;;;2.83;;
60354;SDS011;46198;51.464;-0.066;2022-11-20T08:26:21;4.63;;;2.47;;
60354;SDS011;46198;51.464;-0.066;2022-11-20T08:28:52;2.20;;;1.80;;
60354;SDS011;46198;51.464;-0.066;2022-11-20T08:31:21;5.50;;;2.63;;
60354;SDS011;46198;51.464;-0.066;2022-11-20T08:33:49;3.83;;;2.50;;
60354;SDS011;46198;51.464;-0.066;2022-11-20T08:36:17;3.93;;;2.10;;
60354;SDS011;46198;51.464;-0.066;2022-11-20T08:38:48;3.03;;;2.40;;
60354;SDS011;46198;51.464;-0.066;2022-11-20T08:41:16;3.23;;;2.13;;
60354;SDS011;46198;51.464;-0.066;2022-11-20T08:43:55;2.90;;;2.63;;
60354;SDS011;46198;51.464;-0.066;2022-11-20T08:46:25;4.25;;;2.00;;
60354;SDS011;46198;51.464;-0.066;2022-11-20T08:48:55;5.77;;;2.60;;
60354;SDS011;46198;51.464;-0.066;2022-11-20T08:51:23;4.00;;;2.90;;
60354;SDS011;46198;51.464;-0.066;2022-11-20T08:53:52;3.10;;;2.70;;
60354;SDS011;46198;51.464;-0.066;2022-11-20T08:56:20;3.67;;;2.50;;
60354;SDS011;46198;51.464;-0.066;2022-11-20T08:58:49;4.33;;;2.70;;
60354;SDS011;46198;51.464;-0.066;2022-11-20T09:01:37;4.57;;;3.03;;
60354;SDS011;46198;51.464;-0.066;2022-11-20T09:04:06;7.80;;;4.13;;
60354;SDS011;46198;51.464;-0.066;2022-11-20T09:06:34;6.27;;;4.70;;
60354;SDS011;46198;51.464;-0.066;2022-11-20T09:09:03;5.83;;;4.93;;
60354;SDS011;46198;51.464;-0.066;2022-11-20T09:11:33;8.23;;;4.97;;
60354;SDS011;46198;51.464;-0.066;2022-11-20T09:14:01;7.97;;;4.63;;
60354;SDS011;46198;51.464;-0.066;2022-11-20T09:16:31;6.27;;;4.40;;
60354;SDS011;46198;51.464;-0.066;2022-11-20T09:18:59;7.37;;;4.40;;
60354;SDS011;46198;51.464;-0.066;2022-11-20T09:21:47;6.47;;;4.07;;
60354;SDS011;46198;51.464;-0.066;2022-11-20T09:24:17;9.03;;;3.63;;
60354;SDS011;46198;51.464;-0.066;2022-11-20T09:26:47;7.60;;;3.77;;
60354;SDS011;46198;51.464;-0.066;2022-11-20T09:29:15;9.90;;;4.37;;
60354;SDS011;46198;51.464;-0.066;2022-11-20T09:31:43;8.70;;;4.70;;
60354;SDS011;46198;51.464;-0.066;2022-11-20T09:34:11;7.07;;;3.80;;
60354;SDS011;46198;51.464;-0.066;2022-11-20T09:36:39;7.07;;;3.70;;
60354;SDS011;46198;51.464;-0.066;2022-11-20T09:39:07;10.37;;;4.77;;
60354;SDS011;46198;51.464;-0.066;2022-11-20T09:41:47;8.23;;;5.00;;
60354;SDS011;46198;51.464;-0.066;2022-11-20T09:44:28;10.43;;;4.40;;
60354;SDS011;46198;51.464;-0.066;2022-11-20T09:47:08;10.30;;;4.67;;
60354;SDS011;46198;51.464;-0.066;2022-11-20T09:49:47;14.57;;;4.70;;
60354;SDS011;46198;51.464;-0.066;2022-11-20T09:52:29;10.80;;;3.97;;
60354;SDS011;46198;51.464;-0.066;2022-11-20T09:55:08;9.37;;;3.83;;
60354;SDS011;46198;51.464;-0.066;2022-11-20T09:57:41;10.90;;;3.60;;
60354;SDS011;46198;51.464;-0.066;2022-11-20T10:00:12;7.23;;;3.90;;
60354;SDS011;46198;51.464;-0.066;2022-11-20T10:02:42;8.18;;;4.10;;
60354;SDS011;46198;51.464;-0.066;2022-11-20T10:05:18;10.47;;;4.20;;
60354;SDS011;46198;51.464;-0.066;2022-11-20T10:07:51;6.67;;;3.73;;
60354;SDS011;46198;51.464;-0.066;2022-11-20T10:10:27;7.57;;;3.70;;
60354;SDS011;46198;51.464;-0.066;2022-11-20T10:13:14;8.97;;;3.83;;
60354;SDS011;46198;51.464;-0.066;2022-11-20T10:15:54;9.63;;;4.13;;
60354;SDS011;46198;51.464;-0.066;2022-11-20T10:18:35;9.10;;;4.33;;
60354;SDS011;46198;51.464;-0.066;2022-11-20T10:21:14;12.83;;;4.17;;
60354;SDS011;46198;51.464;-0.066;2022-11-20T10:23:57;7.67;;;3.37;;
60354;SDS011;46198;51.464;-0.066;2022-11-20T10:26:37;8.95;;;3.88;;
60354;SDS011;46198;51.464;-0.066;2022-11-20T10:29:14;12.40;;;3.57;;
60354;SDS011;46198;51.464;-0.066;2022-11-20T10:31:44;8.53;;;4.23;;
60354;SDS011;46198;51.464;-0.066;2022-11-20T10:34:20;11.33;;;3.67;;
60354;SDS011;46198;51.464;-0.066;2022-11-20T10:36:52;7.70;;;3.30;;
60354;SDS011;46198;51.464;-0.066;2022-11-20T10:39:25;9.83;;;3.93;;
60354;SDS011;46198;51.464;-0.066;2022-11-20T10:42:00;11.43;;;3.17;;
60354;SDS011;46198;51.464;-0.066;2022-11-20T10:44:30;10.97;;;5.13;;
60354;SDS011;46198;51.464;-0.066;2022-11-20T10:47:22;8.97;;;3.40;;
60354;SDS011;46198;51.464;-0.066;2022-11-20T10:49:51;8.67;;;3.20;;
60354;SDS011;46198;51.464;-0.066;2022-11-20T10:52:23;11.27;;;3.57;;
60354;SDS011;46198;51.464;-0.066;2022-11-20T10:55:02;10.23;;;3.17;;
60354;SDS011;46198;51.464;-0.066;2022-11-20T10:57:46;12.47;;;3.43;;
60354;SDS011;46198;51.464;-0.066;2022-11-20T11:00:24;14.40;;;3.63;;
60354;SDS011;46198;51.464;-0.066;2022-11-20T11:02:53;13.73;;;2.70;;
60354;SDS011;46198;51.464;-0.066;2022-11-20T11:05:32;10.17;;;2.90;;
60354;SDS011;46198;51.464;-0.066;2022-11-20T11:08:04;10.40;;;2.60;;
60354;SDS011;46198;51.464;-0.066;2022-11-20T11:10:39;16.73;;;2.90;;
60354;SDS011;46198;51.464;-0.066;2022-11-20T11:13:22;15.53;;;3.10;;
60354;SDS011;46198;51.464;-0.066;2022-11-20T11:15:53;6.37;;;2.40;;
60354;SDS011;46198;51.464;-0.066;2022-11-20T11:18:22;13.55;;;2.72;;
60354;SDS011;46198;51.464;-0.066;2022-11-20T11:20:52;9.60;;;2.40;;
60354;SDS011;46198;51.464;-0.066;2022-11-20T11:23:31;10.47;;;2.90;;
60354;SDS011;46198;51.464;-0.066;2022-11-20T11:26:02;11.13;;;2.37;;
60354;SDS011;46198;51.464;-0.066;2022-11-20T11:28:31;10.00;;;2.83;;
60354;SDS011;46198;51.464;-0.066;2022-11-20T11:31:01;12.97;;;2.70;;
60354;SDS011;46198;51.464;-0.066;2022-11-20T11:33:30;7.40;;;2.10;;
60354;SDS011;46198;51.464;-0.066;2022-11-20T11:36:01;9.43;;;2.83;;
60354;SDS011;46198;51.464;-0.066;2022-11-20T11:38:32;12.18;;;2.65;;
60354;SDS011;46198;51.464;-0.066;2022-11-20T11:41:04;14.83;;;2.70;;
60354;SDS011;46198;51.464;-0.066;2022-11-20T11:43:36;13.63;;;2.93;;
60354;SDS011;46198;51.464;-0.066;2022-11-20T11:46:26;14.03;;;3.00;;
60354;SDS011;46198;51.464;-0.066;2022-11-20T11:48:57;10.67;;;2.87;;
60354;SDS011;46198;51.464;-0.066;2022-11-20T11:51:26;14.23;;;2.30;;
60354;SDS011;46198;51.464;-0.066;2022-11-20T11:54:00;9.60;;;3.17;;
60354;SDS011;46198;51.464;-0.066;2022-11-20T11:56:31;14.93;;;2.33;;
60354;SDS011;46198;51.464;-0.066;2022-11-20T11:59:00;14.27;;;2.93;;
60354;SDS011;46198;51.464;-0.066;2022-11-20T12:01:41;12.67;;;2.43;;
60354;SDS011;46198;51.464;-0.066;2022-11-20T12:04:17;13.33;;;2.47;;
60354;SDS011;46198;51.464;-0.066;2022-11-20T12:06:53;13.10;;;3.13;;
60354;SDS011;46198;51.464;-0.066;2022-11-20T12:09:48;16.97;;;3.20;;
60354;SDS011;46198;51.464;-0.066;2022-11-20T12:12:23;11.73;;;3.43;;
60354;SDS011;46198;51.464;-0.066;2022-11-20T12:14:55;8.70;;;2.93;;
60354;SDS011;46198;51.464;-0.066;2022-11-20T12:17:27;14.48;;;4.05;;
60354;SDS011;46198;51.464;-0.066;2022-11-20T12:19:55;15.80;;;2.30;;
60354;SDS011;46198;51.464;-0.066;2022-11-20T12:22:26;14.13;;;3.50;;
60354;SDS011;46198;51.464;-0.066;2022-11-20T12:25:03;21.77;;;3.17;;
60354;SDS011;46198;51.464;-0.066;2022-11-20T12:27:44;19.50;;;2.50;;
60354;SDS011;46198;51.464;-0.066;2022-11-20T12:30:22;12.70;;;2.83;;
60354;SDS011;46198;51.464;-0.066;2022-11-20T12:32:58;20.17;;;3.87;;
60354;SDS011;46198;51.464;-0.066;2022-11-20T12:38:38;14.60;;;4.10;;
60354;SDS011;46198;51.464;-0.066;2022-11-20T12:41:32;15.17;;;3.27;;
60354;SDS011;46198;51.464;-0.066;2022-11-20T12:47:52;13.02;;;2.60;;
60354;SDS011;46198;51.464;-0.066;2022-11-20T12:50:37;17.07;;;3.27;;
60354;SDS011;46198;51.464;-0.066;2022-11-20T12:53:37;13.63;;;3.80;;
60354;SDS011;46198;51.464;-0.066;2022-11-20T12:56:17;20.88;;;4.07;;
60354;SDS011;46198;51.464;-0.066;2022-11-20T12:59:01;13.98;;;2.55;;
60354;SDS011;46198;51.464;-0.066;2022-11-20T13:01:45;11.87;;;3.00;;
60354;SDS011;46198;51.464;-0.066;2022-11-20T13:04:23;19.80;;;5.80;;
60354;SDS011;46198;51.464;-0.066;2022-11-20T13:07:08;11.60;;;2.58;;
60354;SDS011;46198;51.464;-0.066;2022-11-20T13:09:39;9.02;;;2.80;;
60354;SDS011;46198;51.464;-0.066;2022-11-20T13:12:11;10.82;;;2.75;;
60354;SDS011;46198;51.464;-0.066;2022-11-20T13:14:45;15.43;;;3.70;;
60354;SDS011;46198;51.464;-0.066;2022-11-20T13:17:21;13.25;;;2.80;;
60354;SDS011;46198;51.464;-0.066;2022-11-20T13:19:58;18.38;;;2.75;;
60354;SDS011;46198;51.464;-0.066;2022-11-20T13:22:27;15.48;;;3.30;;
60354;SDS011;46198;51.464;-0.066;2022-11-20T13:25:09;19.73;;;5.38;;
60354;SDS011;46198;51.464;-0.066;2022-11-20T13:27:46;20.90;;;5.30;;
60354;SDS011;46198;51.464;-0.066;2022-11-20T13:30:16;9.00;;;2.78;;
60354;SDS011;46198;51.464;-0.066;2022-11-20T13:32:52;15.27;;;2.97;;
60354;SDS011;46198;51.464;-0.066;2022-11-20T13:35:31;15.67;;;2.50;;
60354;SDS011;46198;51.464;-0.066;2022-11-20T13:38:01;11.80;;;2.75;;
60354;SDS011;46198;51.464;-0.066;2022-11-20T13:40:31;15.48;;;3.08;;
60354;SDS011;46198;51.464;-0.066;2022-11-20T13:45:57;14.87;;;2.97;;
60354;SDS011;46198;51.464;-0.066;2022-11-20T13:48:26;9.90;;;3.00;;
60354;SDS011;46198;51.464;-0.066;2022-11-20T13:51:09;13.73;;;3.93;;
60354;SDS011;46198;51.464;-0.066;2022-11-20T13:56:43;14.73;;;2.47;;
60354;SDS011;46198;51.464;-0.066;2022-11-20T13:59:24;12.60;;;2.87;;
60354;SDS011;46198;51.464;-0.066;2022-11-20T14:02:08;11.17;;;2.20;;
60354;SDS011;46198;51.464;-0.066;2022-11-20T14:04:41;15.25;;;4.35;;
60354;SDS011;46198;51.464;-0.066;2022-11-20T14:07:13;13.43;;;2.47;;
60354;SDS011;46198;51.464;-0.066;2022-11-20T14:09:49;14.32;;;3.05;;
60354;SDS011;46198;51.464;-0.066;2022-11-20T14:12:21;8.40;;;2.90;;
60354;SDS011;46198;51.464;-0.066;2022-11-20T14:14:54;19.00;;;2.75;;
60354;SDS011;46198;51.464;-0.066;2022-11-20T14:17:24;15.60;;;2.97;;
60354;SDS011;46198;51.464;-0.066;2022-11-20T14:19:58;18.17;;;4.07;;
60354;SDS011;46198;51.464;-0.066;2022-11-20T14:25:03;13.53;;;3.33;;
60354;SDS011;46198;51.464;-0.066;2022-11-20T14:27:35;11.47;;;2.13;;
60354;SDS011;46198;51.464;-0.066;2022-11-20T14:30:06;13.60;;;2.27;;
60354;SDS011;46198;51.464;-0.066;2022-11-20T14:32:41;13.53;;;3.70;;
60354;SDS011;46198;51.464;-0.066;2022-11-20T14:35:13;13.30;;;3.50;;
60354;SDS011;46198;51.464;-0.066;2022-11-20T14:37:47;14.07;;;3.20;;
60354;SDS011;46198;51.464;-0.066;2022-11-20T14:40:23;16.93;;;4.67;;
60354;SDS011;46198;51.464;-0.066;2022-11-20T14:42:53;17.40;;;2.87;;
60354;SDS011;46198;51.464;-0.066;2022-11-20T14:45:22;20.37;;;3.87;;
60354;SDS011;46198;51.464;-0.066;2022-11-20T14:47:53;14.35;;;3.95;;
60354;SDS011;46198;51.464;-0.066;2022-11-20T14:50:24;18.10;;;3.40;;
60354;SDS011;46198;51.464;-0.066;2022-11-20T14:52:56;15.30;;;3.53;;
60354;SDS011;46198;51.464;-0.066;2022-11-20T14:55:26;15.77;;;4.30;;
60354;SDS011;46198;51.464;-0.066;2022-11-20T14:57:56;14.70;;;3.10;;
60354;SDS011;46198;51.464;-0.066;2022-11-20T15:00:28;10.47;;;2.40;;
60354;SDS011;46198;51.464;-0.066;2022-11-20T15:02:57;16.48;;;3.15;;
60354;SDS011;46198;51.464;-0.066;2022-11-20T15:05:36;11.30;;;3.10;;
60354;SDS011;46198;51.464;-0.066;2022-11-20T15:08:17;10.53;;;2.40;;
60354;SDS011;46198;51.464;-0.066;2022-11-20T15:10:46;14.75;;;3.38;;
60354;SDS011;46198;51.464;-0.066;2022-11-20T15:13:16;11.70;;;2.60;;